sensor_id;sensor_type;location;lat;lon;timestamp;P1;durP1;ratioP1;P2;durP2;ratioP2
60336;SDS011;46978;50.288;28.624;2024-03-08T00:00:40;31.08;;;16.91;;
60336;SDS011;46978;50.288;28.624;2024-03-08T00:01:41;28.93;;;16.36;;
60336;SDS011;46978;50.288;28.624;2024-03-08T00:02:46;31.00;;;18.01;;
60336;SDS011;46978;50.288;28.624;2024-03-08T00:03:48;31.31;;;16.76;;
60336;SDS011;46978;50.288;28.624;2024-03-08T00:04:50;30.18;;;16.74;;
60336;SDS011;46978;50.288;28.624;2024-03-08T00:05:52;27.88;;;15.76;;
60336;SDS011;46978;50.288;28.624;2024-03-08T00:06:53;27.53;;;15.85;;
60336;SDS011;46978;50.288;28.624;2024-03-08T00:07:55;27.30;;;15.72;;
60336;SDS011;46978;50.288;28.624;2024-03-08T00:08:57;27.49;;;15.75;;
60336;SDS011;46978;50.288;28.624;2024-03-08T00:09:58;28.15;;;16.59;;
60336;SDS011;46978;50.288;28.624;2024-03-08T00:11:00;28.44;;;16.45;;
60336;SDS011;46978;50.288;28.624;2024-03-08T00:12:02;29.08;;;15.55;;
60336;SDS011;46978;50.288;28.624;2024-03-08T00:13:03;30.50;;;16.52;;
60336;SDS011;46978;50.288;28.624;2024-03-08T00:14:05;27.57;;;15.79;;
60336;SDS011;46978;50.288;28.624;2024-03-08T00:15:13;28.16;;;15.46;;
60336;SDS011;46978;50.288;28.624;2024-03-08T00:16:16;29.60;;;17.29;;
60336;SDS011;46978;50.288;28.624;2024-03-08T00:17:18;27.31;;;15.16;;
60336;SDS011;46978;50.288;28.624;2024-03-08T00:18:19;28.34;;;16.12;;
60336;SDS011;46978;50.288;28.624;2024-03-08T00:19:21;31.29;;;16.67;;
60336;SDS011;46978;50.288;28.624;2024-03-08T00:20:23;31.01;;;17.10;;
60336;SDS011;46978;50.288;28.624;2024-03-08T00:21:24;30.91;;;16.65;;
60336;SDS011;46978;50.288;28.624;2024-03-08T00:22:26;29.07;;;17.07;;
60336;SDS011;46978;50.288;28.624;2024-03-08T00:23:27;32.15;;;17.63;;
60336;SDS011;46978;50.288;28.624;2024-03-08T00:24:29;31.34;;;17.59;;
60336;SDS011;46978;50.288;28.624;2024-03-08T00:25:32;30.77;;;17.21;;
60336;SDS011;46978;50.288;28.624;2024-03-08T00:26:34;33.85;;;17.59;;
60336;SDS011;46978;50.288;28.624;2024-03-08T00:27:36;33.35;;;17.06;;
60336;SDS011;46978;50.288;28.624;2024-03-08T00:28:38;33.69;;;17.11;;
60336;SDS011;46978;50.288;28.624;2024-03-08T00:29:39;31.99;;;17.37;;
60336;SDS011;46978;50.288;28.624;2024-03-08T00:30:41;30.02;;;16.79;;
60336;SDS011;46978;50.288;28.624;2024-03-08T00:31:43;34.38;;;16.65;;
60336;SDS011;46978;50.288;28.624;2024-03-08T00:32:44;28.59;;;15.61;;
60336;SDS011;46978;50.288;28.624;2024-03-08T00:33:46;27.71;;;16.77;;
60336;SDS011;46978;50.288;28.624;2024-03-08T00:34:47;27.84;;;15.29;;
60336;SDS011;46978;50.288;28.624;2024-03-08T00:35:49;29.24;;;15.71;;
60336;SDS011;46978;50.288;28.624;2024-03-08T00:36:51;26.61;;;16.10;;
60336;SDS011;46978;50.288;28.624;2024-03-08T00:37:52;30.43;;;15.55;;
60336;SDS011;46978;50.288;28.624;2024-03-08T00:38:54;26.09;;;15.54;;
60336;SDS011;46978;50.288;28.624;2024-03-08T00:39:55;27.28;;;15.54;;
60336;SDS011;46978;50.288;28.624;2024-03-08T00:40:57;28.36;;;15.41;;
60336;SDS011;46978;50.288;28.624;2024-03-08T00:41:59;29.79;;;16.32;;
60336;SDS011;46978;50.288;28.624;2024-03-08T00:43:01;28.89;;;15.21;;
60336;SDS011;46978;50.288;28.624;2024-03-08T00:44:02;29.29;;;15.97;;
60336;SDS011;46978;50.288;28.624;2024-03-08T00:45:05;27.22;;;16.01;;
60336;SDS011;46978;50.288;28.624;2024-03-08T00:46:07;30.43;;;15.82;;
60336;SDS011;46978;50.288;28.624;2024-03-08T00:47:09;28.58;;;15.79;;
60336;SDS011;46978;50.288;28.624;2024-03-08T00:48:10;25.60;;;14.58;;
60336;SDS011;46978;50.288;28.624;2024-03-08T00:49:12;28.24;;;15.06;;
60336;SDS011;46978;50.288;28.624;2024-03-08T00:50:14;29.09;;;15.37;;
60336;SDS011;46978;50.288;28.624;2024-03-08T00:51:15;28.87;;;15.26;;
60336;SDS011;46978;50.288;28.624;2024-03-08T00:52:17;27.45;;;15.44;;
60336;SDS011;46978;50.288;28.624;2024-03-08T00:53:19;28.15;;;15.96;;
60336;SDS011;46978;50.288;28.624;2024-03-08T00:54:20;29.12;;;15.79;;
60336;SDS011;46978;50.288;28.624;2024-03-08T00:55:24;30.84;;;15.94;;
60336;SDS011;46978;50.288;28.624;2024-03-08T00:56:25;30.65;;;16.55;;
60336;SDS011;46978;50.288;28.624;2024-03-08T00:57:27;30.56;;;16.22;;
60336;SDS011;46978;50.288;28.624;2024-03-08T00:58:29;28.70;;;15.95;;
60336;SDS011;46978;50.288;28.624;2024-03-08T00:59:30;29.81;;;16.09;;
60336;SDS011;46978;50.288;28.624;2024-03-08T01:00:32;28.76;;;16.27;;
60336;SDS011;46978;50.288;28.624;2024-03-08T01:01:34;31.03;;;16.14;;
60336;SDS011;46978;50.288;28.624;2024-03-08T01:02:35;27.35;;;15.74;;
60336;SDS011;46978;50.288;28.624;2024-03-08T01:03:37;31.06;;;16.27;;
60336;SDS011;46978;50.288;28.624;2024-03-08T01:04:39;29.53;;;15.53;;
60336;SDS011;46978;50.288;28.624;2024-03-08T01:05:40;29.64;;;15.57;;
60336;SDS011;46978;50.288;28.624;2024-03-08T01:06:42;30.74;;;16.02;;
60336;SDS011;46978;50.288;28.624;2024-03-08T01:07:44;29.54;;;16.86;;
60336;SDS011;46978;50.288;28.624;2024-03-08T01:08:45;27.88;;;15.29;;
60336;SDS011;46978;50.288;28.624;2024-03-08T01:09:47;30.31;;;15.36;;
60336;SDS011;46978;50.288;28.624;2024-03-08T01:10:49;30.32;;;16.39;;
60336;SDS011;46978;50.288;28.624;2024-03-08T01:11:50;30.29;;;15.62;;
60336;SDS011;46978;50.288;28.624;2024-03-08T01:12:52;27.76;;;15.28;;
60336;SDS011;46978;50.288;28.624;2024-03-08T01:13:53;29.04;;;14.93;;
60336;SDS011;46978;50.288;28.624;2024-03-08T01:14:55;28.94;;;15.19;;
60336;SDS011;46978;50.288;28.624;2024-03-08T01:15:57;27.89;;;15.71;;
60336;SDS011;46978;50.288;28.624;2024-03-08T01:16:59;28.25;;;16.41;;
60336;SDS011;46978;50.288;28.624;2024-03-08T01:18:00;30.23;;;14.95;;
60336;SDS011;46978;50.288;28.624;2024-03-08T01:19:02;28.66;;;15.56;;
60336;SDS011;46978;50.288;28.624;2024-03-08T01:20:04;26.19;;;15.22;;
60336;SDS011;46978;50.288;28.624;2024-03-08T01:21:07;29.32;;;15.18;;
60336;SDS011;46978;50.288;28.624;2024-03-08T01:22:09;26.77;;;15.08;;
60336;SDS011;46978;50.288;28.624;2024-03-08T01:23:10;26.19;;;14.53;;
60336;SDS011;46978;50.288;28.624;2024-03-08T01:24:12;26.61;;;14.70;;
60336;SDS011;46978;50.288;28.624;2024-03-08T01:25:17;28.51;;;15.92;;
60336;SDS011;46978;50.288;28.624;2024-03-08T01:26:18;29.20;;;14.61;;
60336;SDS011;46978;50.288;28.624;2024-03-08T01:27:20;28.69;;;15.70;;
60336;SDS011;46978;50.288;28.624;2024-03-08T01:28:26;27.20;;;14.86;;
60336;SDS011;46978;50.288;28.624;2024-03-08T01:29:27;26.66;;;15.60;;
60336;SDS011;46978;50.288;28.624;2024-03-08T01:30:29;28.86;;;15.34;;
60336;SDS011;46978;50.288;28.624;2024-03-08T01:31:30;26.50;;;14.36;;
60336;SDS011;46978;50.288;28.624;2024-03-08T01:32:32;29.90;;;16.10;;
60336;SDS011;46978;50.288;28.624;2024-03-08T01:33:34;30.02;;;16.15;;
60336;SDS011;46978;50.288;28.624;2024-03-08T01:34:35;27.51;;;15.34;;
60336;SDS011;46978;50.288;28.624;2024-03-08T01:35:37;28.27;;;15.11;;
60336;SDS011;46978;50.288;28.624;2024-03-08T01:36:39;27.42;;;14.94;;
60336;SDS011;46978;50.288;28.624;2024-03-08T01:37:40;26.98;;;15.29;;
60336;SDS011;46978;50.288;28.624;2024-03-08T01:38:42;24.59;;;14.49;;
60336;SDS011;46978;50.288;28.624;2024-03-08T01:39:44;27.84;;;15.35;;
60336;SDS011;46978;50.288;28.624;2024-03-08T01:40:45;25.99;;;14.81;;
60336;SDS011;46978;50.288;28.624;2024-03-08T01:41:47;27.48;;;15.06;;
60336;SDS011;46978;50.288;28.624;2024-03-08T01:42:49;27.91;;;15.23;;
60336;SDS011;46978;50.288;28.624;2024-03-08T01:43:51;32.26;;;15.53;;
60336;SDS011;46978;50.288;28.624;2024-03-08T01:44:52;29.63;;;15.86;;
60336;SDS011;46978;50.288;28.624;2024-03-08T01:45:57;27.47;;;14.96;;
60336;SDS011;46978;50.288;28.624;2024-03-08T01:47:00;27.48;;;15.99;;
60336;SDS011;46978;50.288;28.624;2024-03-08T01:48:02;32.16;;;15.80;;
60336;SDS011;46978;50.288;28.624;2024-03-08T01:49:03;25.96;;;15.13;;
60336;SDS011;46978;50.288;28.624;2024-03-08T01:50:06;27.92;;;14.95;;
60336;SDS011;46978;50.288;28.624;2024-03-08T01:51:08;29.95;;;15.59;;
60336;SDS011;46978;50.288;28.624;2024-03-08T01:52:11;30.09;;;16.04;;
60336;SDS011;46978;50.288;28.624;2024-03-08T01:53:12;30.47;;;16.36;;
60336;SDS011;46978;50.288;28.624;2024-03-08T01:54:15;28.61;;;15.37;;
60336;SDS011;46978;50.288;28.624;2024-03-08T01:55:21;27.81;;;15.77;;
60336;SDS011;46978;50.288;28.624;2024-03-08T01:56:24;31.02;;;16.71;;
60336;SDS011;46978;50.288;28.624;2024-03-08T01:57:26;30.49;;;16.63;;
60336;SDS011;46978;50.288;28.624;2024-03-08T01:58:29;30.24;;;15.48;;
60336;SDS011;46978;50.288;28.624;2024-03-08T01:59:31;25.46;;;14.90;;
60336;SDS011;46978;50.288;28.624;2024-03-08T02:00:33;27.97;;;15.51;;
60336;SDS011;46978;50.288;28.624;2024-03-08T02:01:36;25.81;;;14.65;;
60336;SDS011;46978;50.288;28.624;2024-03-08T02:02:38;27.65;;;14.93;;
60336;SDS011;46978;50.288;28.624;2024-03-08T02:03:43;26.80;;;15.54;;
60336;SDS011;46978;50.288;28.624;2024-03-08T02:04:46;30.49;;;15.26;;
60336;SDS011;46978;50.288;28.624;2024-03-08T02:05:48;28.34;;;15.67;;
60336;SDS011;46978;50.288;28.624;2024-03-08T02:06:50;29.01;;;15.51;;
60336;SDS011;46978;50.288;28.624;2024-03-08T02:07:52;27.35;;;15.70;;
60336;SDS011;46978;50.288;28.624;2024-03-08T02:08:54;28.62;;;15.98;;
60336;SDS011;46978;50.288;28.624;2024-03-08T02:09:55;27.15;;;15.00;;
60336;SDS011;46978;50.288;28.624;2024-03-08T02:10:57;29.53;;;16.15;;
60336;SDS011;46978;50.288;28.624;2024-03-08T02:12:00;27.48;;;16.10;;
60336;SDS011;46978;50.288;28.624;2024-03-08T02:13:01;29.35;;;15.66;;
60336;SDS011;46978;50.288;28.624;2024-03-08T02:14:04;31.31;;;15.86;;
60336;SDS011;46978;50.288;28.624;2024-03-08T02:15:06;30.92;;;16.07;;
60336;SDS011;46978;50.288;28.624;2024-03-08T02:16:08;29.19;;;16.11;;
60336;SDS011;46978;50.288;28.624;2024-03-08T02:17:10;27.77;;;16.26;;
60336;SDS011;46978;50.288;28.624;2024-03-08T02:18:12;29.76;;;15.51;;
60336;SDS011;46978;50.288;28.624;2024-03-08T02:19:13;30.81;;;16.70;;
60336;SDS011;46978;50.288;28.624;2024-03-08T02:20:15;30.94;;;16.13;;
60336;SDS011;46978;50.288;28.624;2024-03-08T02:21:17;30.91;;;16.79;;
60336;SDS011;46978;50.288;28.624;2024-03-08T02:22:19;26.75;;;16.07;;
60336;SDS011;46978;50.288;28.624;2024-03-08T02:23:21;27.44;;;16.59;;
60336;SDS011;46978;50.288;28.624;2024-03-08T02:24:23;32.43;;;17.04;;
60336;SDS011;46978;50.288;28.624;2024-03-08T02:25:27;31.53;;;17.59;;
60336;SDS011;46978;50.288;28.624;2024-03-08T02:26:29;31.27;;;17.75;;
60336;SDS011;46978;50.288;28.624;2024-03-08T02:27:31;30.54;;;17.42;;
60336;SDS011;46978;50.288;28.624;2024-03-08T02:28:32;33.53;;;17.74;;
60336;SDS011;46978;50.288;28.624;2024-03-08T02:29:34;28.70;;;17.21;;
60336;SDS011;46978;50.288;28.624;2024-03-08T02:30:38;29.28;;;16.84;;
60336;SDS011;46978;50.288;28.624;2024-03-08T02:31:39;31.06;;;16.82;;
60336;SDS011;46978;50.288;28.624;2024-03-08T02:32:41;36.13;;;18.54;;
60336;SDS011;46978;50.288;28.624;2024-03-08T02:33:42;32.87;;;17.46;;
60336;SDS011;46978;50.288;28.624;2024-03-08T02:34:44;33.51;;;18.24;;
60336;SDS011;46978;50.288;28.624;2024-03-08T02:35:46;30.05;;;17.53;;
60336;SDS011;46978;50.288;28.624;2024-03-08T02:36:49;33.77;;;17.97;;
60336;SDS011;46978;50.288;28.624;2024-03-08T02:37:50;31.02;;;17.28;;
60336;SDS011;46978;50.288;28.624;2024-03-08T02:38:52;31.04;;;17.99;;
60336;SDS011;46978;50.288;28.624;2024-03-08T02:39:54;32.82;;;17.73;;
60336;SDS011;46978;50.288;28.624;2024-03-08T02:40:56;34.35;;;19.03;;
60336;SDS011;46978;50.288;28.624;2024-03-08T02:41:58;34.61;;;18.48;;
60336;SDS011;46978;50.288;28.624;2024-03-08T02:42:59;35.13;;;18.66;;
60336;SDS011;46978;50.288;28.624;2024-03-08T02:44:01;32.31;;;18.92;;
60336;SDS011;46978;50.288;28.624;2024-03-08T02:45:03;32.72;;;18.73;;
60336;SDS011;46978;50.288;28.624;2024-03-08T02:46:05;32.15;;;17.59;;
60336;SDS011;46978;50.288;28.624;2024-03-08T02:47:07;35.01;;;19.37;;
60336;SDS011;46978;50.288;28.624;2024-03-08T02:48:08;37.46;;;18.87;;
60336;SDS011;46978;50.288;28.624;2024-03-08T02:49:10;33.82;;;19.16;;
60336;SDS011;46978;50.288;28.624;2024-03-08T02:50:13;35.23;;;18.67;;
60336;SDS011;46978;50.288;28.624;2024-03-08T02:51:14;36.18;;;19.08;;
60336;SDS011;46978;50.288;28.624;2024-03-08T02:52:16;35.16;;;18.54;;
60336;SDS011;46978;50.288;28.624;2024-03-08T02:53:17;34.31;;;18.58;;
60336;SDS011;46978;50.288;28.624;2024-03-08T02:54:19;36.88;;;19.44;;
60336;SDS011;46978;50.288;28.624;2024-03-08T02:55:23;33.09;;;18.41;;
60336;SDS011;46978;50.288;28.624;2024-03-08T02:56:25;49.58;;;19.93;;
60336;SDS011;46978;50.288;28.624;2024-03-08T02:57:27;36.91;;;19.74;;
60336;SDS011;46978;50.288;28.624;2024-03-08T02:58:28;40.06;;;20.47;;
60336;SDS011;46978;50.288;28.624;2024-03-08T02:59:30;36.21;;;19.90;;
60336;SDS011;46978;50.288;28.624;2024-03-08T03:00:32;34.29;;;19.62;;
60336;SDS011;46978;50.288;28.624;2024-03-08T03:01:33;37.70;;;19.42;;
60336;SDS011;46978;50.288;28.624;2024-03-08T03:02:35;38.44;;;19.84;;
60336;SDS011;46978;50.288;28.624;2024-03-08T03:03:37;38.61;;;20.29;;
60336;SDS011;46978;50.288;28.624;2024-03-08T03:04:39;40.56;;;21.24;;
60336;SDS011;46978;50.288;28.624;2024-03-08T03:05:41;37.43;;;19.97;;
60336;SDS011;46978;50.288;28.624;2024-03-08T03:06:43;33.97;;;19.47;;
60336;SDS011;46978;50.288;28.624;2024-03-08T03:07:45;41.20;;;21.27;;
60336;SDS011;46978;50.288;28.624;2024-03-08T03:08:46;37.54;;;20.18;;
60336;SDS011;46978;50.288;28.624;2024-03-08T03:09:48;34.65;;;19.46;;
60336;SDS011;46978;50.288;28.624;2024-03-08T03:10:50;41.69;;;21.82;;
60336;SDS011;46978;50.288;28.624;2024-03-08T03:11:51;37.88;;;20.82;;
60336;SDS011;46978;50.288;28.624;2024-03-08T03:12:53;40.41;;;21.68;;
60336;SDS011;46978;50.288;28.624;2024-03-08T03:13:55;37.06;;;20.80;;
60336;SDS011;46978;50.288;28.624;2024-03-08T03:14:56;37.74;;;21.81;;
60336;SDS011;46978;50.288;28.624;2024-03-08T03:15:59;38.01;;;20.90;;
60336;SDS011;46978;50.288;28.624;2024-03-08T03:17:00;37.59;;;20.61;;
60336;SDS011;46978;50.288;28.624;2024-03-08T03:18:02;35.96;;;20.79;;
60336;SDS011;46978;50.288;28.624;2024-03-08T03:19:04;37.48;;;20.14;;
60336;SDS011;46978;50.288;28.624;2024-03-08T03:20:07;40.05;;;20.62;;
60336;SDS011;46978;50.288;28.624;2024-03-08T03:21:09;37.72;;;19.88;;
60336;SDS011;46978;50.288;28.624;2024-03-08T03:22:10;33.94;;;19.47;;
60336;SDS011;46978;50.288;28.624;2024-03-08T03:23:12;36.66;;;18.96;;
60336;SDS011;46978;50.288;28.624;2024-03-08T03:24:14;37.65;;;19.38;;
60336;SDS011;46978;50.288;28.624;2024-03-08T03:25:15;36.79;;;19.71;;
60336;SDS011;46978;50.288;28.624;2024-03-08T03:26:17;35.62;;;19.19;;
60336;SDS011;46978;50.288;28.624;2024-03-08T03:27:19;35.26;;;18.29;;
60336;SDS011;46978;50.288;28.624;2024-03-08T03:28:20;32.46;;;18.38;;
60336;SDS011;46978;50.288;28.624;2024-03-08T03:29:22;34.71;;;18.40;;
60336;SDS011;46978;50.288;28.624;2024-03-08T03:30:24;33.00;;;18.87;;
60336;SDS011;46978;50.288;28.624;2024-03-08T03:31:25;32.52;;;17.75;;
60336;SDS011;46978;50.288;28.624;2024-03-08T03:32:27;33.06;;;17.98;;
60336;SDS011;46978;50.288;28.624;2024-03-08T03:33:29;34.94;;;18.26;;
60336;SDS011;46978;50.288;28.624;2024-03-08T03:34:30;32.44;;;18.33;;
60336;SDS011;46978;50.288;28.624;2024-03-08T03:35:32;34.26;;;18.13;;
60336;SDS011;46978;50.288;28.624;2024-03-08T03:36:34;32.54;;;17.01;;
60336;SDS011;46978;50.288;28.624;2024-03-08T03:37:36;32.81;;;17.41;;
60336;SDS011;46978;50.288;28.624;2024-03-08T03:38:37;35.49;;;17.97;;
60336;SDS011;46978;50.288;28.624;2024-03-08T03:39:39;34.57;;;19.93;;
60336;SDS011;46978;50.288;28.624;2024-03-08T03:40:41;33.86;;;18.45;;
60336;SDS011;46978;50.288;28.624;2024-03-08T03:41:43;30.85;;;17.44;;
60336;SDS011;46978;50.288;28.624;2024-03-08T03:42:44;29.72;;;17.81;;
60336;SDS011;46978;50.288;28.624;2024-03-08T03:43:46;30.54;;;17.35;;
60336;SDS011;46978;50.288;28.624;2024-03-08T03:44:48;30.54;;;17.14;;
60336;SDS011;46978;50.288;28.624;2024-03-08T03:45:50;31.47;;;16.78;;
60336;SDS011;46978;50.288;28.624;2024-03-08T03:46:57;34.51;;;16.99;;
60336;SDS011;46978;50.288;28.624;2024-03-08T03:47:59;32.35;;;17.47;;
60336;SDS011;46978;50.288;28.624;2024-03-08T03:49:01;31.72;;;16.53;;
60336;SDS011;46978;50.288;28.624;2024-03-08T03:50:03;29.85;;;17.16;;
60336;SDS011;46978;50.288;28.624;2024-03-08T03:51:05;33.09;;;16.96;;
60336;SDS011;46978;50.288;28.624;2024-03-08T03:52:07;29.75;;;16.35;;
60336;SDS011;46978;50.288;28.624;2024-03-08T03:53:09;30.32;;;17.31;;
60336;SDS011;46978;50.288;28.624;2024-03-08T03:54:10;33.11;;;18.28;;
60336;SDS011;46978;50.288;28.624;2024-03-08T03:55:12;32.79;;;17.82;;
60336;SDS011;46978;50.288;28.624;2024-03-08T03:56:15;32.44;;;16.75;;
60336;SDS011;46978;50.288;28.624;2024-03-08T03:57:16;32.42;;;16.93;;
60336;SDS011;46978;50.288;28.624;2024-03-08T03:58:18;33.27;;;17.09;;
60336;SDS011;46978;50.288;28.624;2024-03-08T03:59:19;31.15;;;18.21;;
60336;SDS011;46978;50.288;28.624;2024-03-08T04:00:21;34.84;;;18.49;;
60336;SDS011;46978;50.288;28.624;2024-03-08T04:01:23;35.39;;;17.42;;
60336;SDS011;46978;50.288;28.624;2024-03-08T04:02:25;33.18;;;17.33;;
60336;SDS011;46978;50.288;28.624;2024-03-08T04:03:27;30.05;;;16.62;;
60336;SDS011;46978;50.288;28.624;2024-03-08T04:04:28;34.01;;;17.49;;
60336;SDS011;46978;50.288;28.624;2024-03-08T04:05:29;34.16;;;17.06;;
60336;SDS011;46978;50.288;28.624;2024-03-08T04:06:31;30.76;;;16.95;;
60336;SDS011;46978;50.288;28.624;2024-03-08T04:07:33;31.69;;;17.45;;
60336;SDS011;46978;50.288;28.624;2024-03-08T04:08:35;30.47;;;16.89;;
60336;SDS011;46978;50.288;28.624;2024-03-08T04:09:36;32.14;;;17.11;;
60336;SDS011;46978;50.288;28.624;2024-03-08T04:10:38;33.03;;;16.89;;
60336;SDS011;46978;50.288;28.624;2024-03-08T04:11:40;32.22;;;17.32;;
60336;SDS011;46978;50.288;28.624;2024-03-08T04:12:41;32.92;;;16.56;;
60336;SDS011;46978;50.288;28.624;2024-03-08T04:13:43;29.79;;;16.31;;
60336;SDS011;46978;50.288;28.624;2024-03-08T04:14:45;27.48;;;16.11;;
60336;SDS011;46978;50.288;28.624;2024-03-08T04:15:46;33.88;;;17.04;;
60336;SDS011;46978;50.288;28.624;2024-03-08T04:16:48;29.55;;;16.83;;
60336;SDS011;46978;50.288;28.624;2024-03-08T04:17:49;30.41;;;16.54;;
60336;SDS011;46978;50.288;28.624;2024-03-08T04:18:51;29.97;;;16.86;;
60336;SDS011;46978;50.288;28.624;2024-03-08T04:19:53;32.07;;;16.99;;
60336;SDS011;46978;50.288;28.624;2024-03-08T04:20:55;30.39;;;16.55;;
60336;SDS011;46978;50.288;28.624;2024-03-08T04:21:56;29.07;;;17.06;;
60336;SDS011;46978;50.288;28.624;2024-03-08T04:22:58;31.76;;;16.77;;
60336;SDS011;46978;50.288;28.624;2024-03-08T04:24:00;32.31;;;17.04;;
60336;SDS011;46978;50.288;28.624;2024-03-08T04:25:02;32.88;;;16.91;;
60336;SDS011;46978;50.288;28.624;2024-03-08T04:26:05;34.78;;;16.97;;
60336;SDS011;46978;50.288;28.624;2024-03-08T04:27:06;32.36;;;17.09;;
60336;SDS011;46978;50.288;28.624;2024-03-08T04:28:08;32.21;;;17.09;;
60336;SDS011;46978;50.288;28.624;2024-03-08T04:29:09;31.66;;;16.81;;
60336;SDS011;46978;50.288;28.624;2024-03-08T04:30:12;28.09;;;16.75;;
60336;SDS011;46978;50.288;28.624;2024-03-08T04:31:14;32.43;;;17.42;;
60336;SDS011;46978;50.288;28.624;2024-03-08T04:32:15;30.54;;;16.60;;
60336;SDS011;46978;50.288;28.624;2024-03-08T04:33:17;33.64;;;17.14;;
60336;SDS011;46978;50.288;28.624;2024-03-08T04:34:18;32.58;;;17.29;;
60336;SDS011;46978;50.288;28.624;2024-03-08T04:35:20;30.94;;;17.39;;
60336;SDS011;46978;50.288;28.624;2024-03-08T04:36:22;34.31;;;17.83;;
60336;SDS011;46978;50.288;28.624;2024-03-08T04:37:24;30.16;;;16.33;;
60336;SDS011;46978;50.288;28.624;2024-03-08T04:38:25;32.96;;;17.19;;
60336;SDS011;46978;50.288;28.624;2024-03-08T04:39:26;34.15;;;17.63;;
60336;SDS011;46978;50.288;28.624;2024-03-08T04:40:28;32.53;;;16.49;;
60336;SDS011;46978;50.288;28.624;2024-03-08T04:41:30;29.91;;;16.05;;
60336;SDS011;46978;50.288;28.624;2024-03-08T04:42:31;32.41;;;17.37;;
60336;SDS011;46978;50.288;28.624;2024-03-08T04:43:33;32.42;;;17.18;;
60336;SDS011;46978;50.288;28.624;2024-03-08T04:44:36;34.75;;;17.43;;
60336;SDS011;46978;50.288;28.624;2024-03-08T04:45:38;30.67;;;17.41;;
60336;SDS011;46978;50.288;28.624;2024-03-08T04:46:40;33.66;;;18.16;;
60336;SDS011;46978;50.288;28.624;2024-03-08T04:47:41;34.32;;;17.64;;
60336;SDS011;46978;50.288;28.624;2024-03-08T04:48:43;33.55;;;16.99;;
60336;SDS011;46978;50.288;28.624;2024-03-08T04:49:45;31.26;;;17.61;;
60336;SDS011;46978;50.288;28.624;2024-03-08T04:50:46;35.91;;;18.19;;
60336;SDS011;46978;50.288;28.624;2024-03-08T04:51:48;36.12;;;18.73;;
60336;SDS011;46978;50.288;28.624;2024-03-08T04:52:50;35.41;;;18.49;;
60336;SDS011;46978;50.288;28.624;2024-03-08T04:53:51;36.99;;;18.91;;
60336;SDS011;46978;50.288;28.624;2024-03-08T04:54:53;40.28;;;19.19;;
60336;SDS011;46978;50.288;28.624;2024-03-08T04:55:54;37.54;;;19.66;;
60336;SDS011;46978;50.288;28.624;2024-03-08T04:56:56;33.83;;;18.75;;
60336;SDS011;46978;50.288;28.624;2024-03-08T04:57:58;37.93;;;19.78;;
60336;SDS011;46978;50.288;28.624;2024-03-08T04:58:59;38.35;;;21.09;;
60336;SDS011;46978;50.288;28.624;2024-03-08T05:00:02;39.34;;;20.08;;
60336;SDS011;46978;50.288;28.624;2024-03-08T05:01:04;38.54;;;20.21;;
60336;SDS011;46978;50.288;28.624;2024-03-08T05:02:06;43.65;;;21.31;;
60336;SDS011;46978;50.288;28.624;2024-03-08T05:03:07;41.73;;;20.19;;
60336;SDS011;46978;50.288;28.624;2024-03-08T05:04:09;41.44;;;21.39;;
60336;SDS011;46978;50.288;28.624;2024-03-08T05:05:10;41.43;;;21.21;;
60336;SDS011;46978;50.288;28.624;2024-03-08T05:06:12;44.24;;;21.60;;
60336;SDS011;46978;50.288;28.624;2024-03-08T05:07:14;44.72;;;22.05;;
60336;SDS011;46978;50.288;28.624;2024-03-08T05:08:15;41.39;;;21.56;;
60336;SDS011;46978;50.288;28.624;2024-03-08T05:09:17;41.89;;;21.44;;
60336;SDS011;46978;50.288;28.624;2024-03-08T05:10:18;42.91;;;22.10;;
60336;SDS011;46978;50.288;28.624;2024-03-08T05:11:20;40.65;;;20.64;;
60336;SDS011;46978;50.288;28.624;2024-03-08T05:12:21;44.07;;;20.74;;
60336;SDS011;46978;50.288;28.624;2024-03-08T05:13:23;43.26;;;21.82;;
60336;SDS011;46978;50.288;28.624;2024-03-08T05:14:24;36.11;;;20.96;;
60336;SDS011;46978;50.288;28.624;2024-03-08T05:15:26;40.29;;;21.87;;
60336;SDS011;46978;50.288;28.624;2024-03-08T05:16:28;37.82;;;19.76;;
60336;SDS011;46978;50.288;28.624;2024-03-08T05:17:29;38.45;;;20.13;;
60336;SDS011;46978;50.288;28.624;2024-03-08T05:18:31;40.40;;;20.48;;
60336;SDS011;46978;50.288;28.624;2024-03-08T05:19:32;39.59;;;20.69;;
60336;SDS011;46978;50.288;28.624;2024-03-08T05:20:34;44.84;;;22.45;;
60336;SDS011;46978;50.288;28.624;2024-03-08T05:21:36;38.98;;;20.79;;
60336;SDS011;46978;50.288;28.624;2024-03-08T05:22:38;161.01;;;33.96;;
60336;SDS011;46978;50.288;28.624;2024-03-08T05:23:39;254.64;;;46.98;;
60336;SDS011;46978;50.288;28.624;2024-03-08T05:24:41;42.64;;;22.18;;
60336;SDS011;46978;50.288;28.624;2024-03-08T05:25:42;41.12;;;21.21;;
60336;SDS011;46978;50.288;28.624;2024-03-08T05:26:44;45.79;;;22.21;;
60336;SDS011;46978;50.288;28.624;2024-03-08T05:27:47;49.81;;;23.09;;
60336;SDS011;46978;50.288;28.624;2024-03-08T05:28:48;48.59;;;22.58;;
60336;SDS011;46978;50.288;28.624;2024-03-08T05:29:50;45.91;;;23.25;;
60336;SDS011;46978;50.288;28.624;2024-03-08T05:30:52;44.23;;;22.91;;
60336;SDS011;46978;50.288;28.624;2024-03-08T05:31:54;43.75;;;22.46;;
60336;SDS011;46978;50.288;28.624;2024-03-08T05:32:55;47.39;;;24.56;;
60336;SDS011;46978;50.288;28.624;2024-03-08T05:33:57;46.84;;;24.44;;
60336;SDS011;46978;50.288;28.624;2024-03-08T05:34:58;49.81;;;25.36;;
60336;SDS011;46978;50.288;28.624;2024-03-08T05:36:00;43.29;;;23.41;;
60336;SDS011;46978;50.288;28.624;2024-03-08T05:37:02;46.79;;;24.09;;
60336;SDS011;46978;50.288;28.624;2024-03-08T05:38:03;48.44;;;25.29;;
60336;SDS011;46978;50.288;28.624;2024-03-08T05:39:05;44.91;;;24.70;;
60336;SDS011;46978;50.288;28.624;2024-03-08T05:40:07;50.27;;;24.05;;
60336;SDS011;46978;50.288;28.624;2024-03-08T05:41:09;45.11;;;24.11;;
60336;SDS011;46978;50.288;28.624;2024-03-08T05:42:11;47.23;;;23.77;;
60336;SDS011;46978;50.288;28.624;2024-03-08T05:43:12;42.04;;;23.34;;
60336;SDS011;46978;50.288;28.624;2024-03-08T05:44:14;47.19;;;23.80;;
60336;SDS011;46978;50.288;28.624;2024-03-08T05:45:16;51.94;;;24.68;;
60336;SDS011;46978;50.288;28.624;2024-03-08T05:46:17;48.88;;;23.38;;
60336;SDS011;46978;50.288;28.624;2024-03-08T05:47:19;45.57;;;24.57;;
60336;SDS011;46978;50.288;28.624;2024-03-08T05:48:20;48.44;;;23.05;;
60336;SDS011;46978;50.288;28.624;2024-03-08T05:49:22;50.94;;;23.88;;
60336;SDS011;46978;50.288;28.624;2024-03-08T05:50:24;43.44;;;23.61;;
60336;SDS011;46978;50.288;28.624;2024-03-08T05:51:25;48.79;;;25.16;;
60336;SDS011;46978;50.288;28.624;2024-03-08T05:52:27;47.36;;;23.69;;
60336;SDS011;46978;50.288;28.624;2024-03-08T05:53:29;50.04;;;23.59;;
60336;SDS011;46978;50.288;28.624;2024-03-08T05:54:30;44.20;;;23.13;;
60336;SDS011;46978;50.288;28.624;2024-03-08T05:55:33;49.95;;;25.29;;
60336;SDS011;46978;50.288;28.624;2024-03-08T05:56:35;49.00;;;24.76;;